sensor_id;sensor_type;location;lat;lon;timestamp;P1;durP1;ratioP1;P2;durP2;ratioP2
19554;SDS011;9924;50.828;6.440;2023-12-04T00:01:16;9.67;;;4.57;;
19554;SDS011;9924;50.828;6.440;2023-12-04T00:03:42;9.10;;;4.37;;
19554;SDS011;9924;50.828;6.440;2023-12-04T00:06:10;10.40;;;4.33;;
19554;SDS011;9924;50.828;6.440;2023-12-04T00:08:37;11.67;;;4.50;;
19554;SDS011;9924;50.828;6.440;2023-12-04T00:11:03;8.63;;;4.60;;
19554;SDS011;9924;50.828;6.440;2023-12-04T00:13:30;8.13;;;4.20;;
19554;SDS011;9924;50.828;6.440;2023-12-04T00:15:56;9.50;;;4.87;;
19554;SDS011;9924;50.828;6.440;2023-12-04T00:18:21;9.73;;;4.80;;
19554;SDS011;9924;50.828;6.440;2023-12-04T00:20:47;11.23;;;5.13;;
19554;SDS011;9924;50.828;6.440;2023-12-04T00:23:13;8.93;;;4.33;;
19554;SDS011;9924;50.828;6.440;2023-12-04T00:25:39;8.13;;;4.33;;
19554;SDS011;9924;50.828;6.440;2023-12-04T00:28:04;11.13;;;4.30;;
19554;SDS011;9924;50.828;6.440;2023-12-04T00:30:30;9.70;;;5.03;;
19554;SDS011;9924;50.828;6.440;2023-12-04T00:32:56;9.30;;;3.93;;
19554;SDS011;9924;50.828;6.440;2023-12-04T00:35:22;11.70;;;5.00;;
19554;SDS011;9924;50.828;6.440;2023-12-04T00:37:47;10.87;;;4.10;;
19554;SDS011;9924;50.828;6.440;2023-12-04T00:40:13;8.33;;;3.90;;
19554;SDS011;9924;50.828;6.440;2023-12-04T00:42:39;7.73;;;3.73;;
19554;SDS011;9924;50.828;6.440;2023-12-04T00:45:05;8.33;;;3.97;;
19554;SDS011;9924;50.828;6.440;2023-12-04T00:47:31;7.33;;;3.87;;
19554;SDS011;9924;50.828;6.440;2023-12-04T00:49:57;7.37;;;3.80;;
19554;SDS011;9924;50.828;6.440;2023-12-04T00:52:23;7.43;;;3.67;;
19554;SDS011;9924;50.828;6.440;2023-12-04T00:54:48;6.53;;;3.30;;
19554;SDS011;9924;50.828;6.440;2023-12-04T00:57:14;7.33;;;3.73;;
19554;SDS011;9924;50.828;6.440;2023-12-04T00:59:40;8.07;;;3.73;;
19554;SDS011;9924;50.828;6.440;2023-12-04T01:02:06;9.57;;;4.30;;
19554;SDS011;9924;50.828;6.440;2023-12-04T01:04:32;7.67;;;3.50;;
19554;SDS011;9924;50.828;6.440;2023-12-04T01:06:58;7.47;;;4.30;;
19554;SDS011;9924;50.828;6.440;2023-12-04T01:09:24;8.17;;;4.23;;
19554;SDS011;9924;50.828;6.440;2023-12-04T01:11:53;9.50;;;4.17;;
19554;SDS011;9924;50.828;6.440;2023-12-04T01:14:19;8.47;;;4.17;;
19554;SDS011;9924;50.828;6.440;2023-12-04T01:16:46;6.97;;;3.70;;
19554;SDS011;9924;50.828;6.440;2023-12-04T01:19:12;6.70;;;3.80;;
19554;SDS011;9924;50.828;6.440;2023-12-04T01:21:38;7.57;;;4.13;;
19554;SDS011;9924;50.828;6.440;2023-12-04T01:24:04;8.20;;;4.33;;
19554;SDS011;9924;50.828;6.440;2023-12-04T01:26:30;8.10;;;3.83;;
19554;SDS011;9924;50.828;6.440;2023-12-04T01:28:56;10.77;;;4.50;;
19554;SDS011;9924;50.828;6.440;2023-12-04T01:31:21;9.90;;;4.50;;
19554;SDS011;9924;50.828;6.440;2023-12-04T01:33:47;7.10;;;3.67;;
19554;SDS011;9924;50.828;6.440;2023-12-04T01:36:13;8.13;;;4.37;;
19554;SDS011;9924;50.828;6.440;2023-12-04T01:38:39;7.97;;;3.90;;
19554;SDS011;9924;50.828;6.440;2023-12-04T01:41:05;7.63;;;3.90;;
19554;SDS011;9924;50.828;6.440;2023-12-04T01:43:31;9.70;;;4.60;;
19554;SDS011;9924;50.828;6.440;2023-12-04T01:45:57;9.17;;;4.90;;
19554;SDS011;9924;50.828;6.440;2023-12-04T01:48:24;11.27;;;5.00;;
19554;SDS011;9924;50.828;6.440;2023-12-04T01:50:51;10.67;;;4.97;;
19554;SDS011;9924;50.828;6.440;2023-12-04T01:53:17;10.57;;;4.90;;
19554;SDS011;9924;50.828;6.440;2023-12-04T01:55:43;10.53;;;5.63;;
19554;SDS011;9924;50.828;6.440;2023-12-04T01:58:09;11.97;;;5.23;;
19554;SDS011;9924;50.828;6.440;2023-12-04T02:00:35;9.27;;;4.77;;
19554;SDS011;9924;50.828;6.440;2023-12-04T02:03:01;10.77;;;5.33;;
19554;SDS011;9924;50.828;6.440;2023-12-04T02:05:27;10.17;;;5.23;;
19554;SDS011;9924;50.828;6.440;2023-12-04T02:07:54;9.53;;;4.90;;
19554;SDS011;9924;50.828;6.440;2023-12-04T02:10:20;9.50;;;4.77;;
19554;SDS011;9924;50.828;6.440;2023-12-04T02:12:47;11.23;;;4.87;;
19554;SDS011;9924;50.828;6.440;2023-12-04T02:15:13;11.13;;;5.33;;
19554;SDS011;9924;50.828;6.440;2023-12-04T02:17:39;8.37;;;4.77;;
19554;SDS011;9924;50.828;6.440;2023-12-04T02:20:07;14.40;;;5.00;;
19554;SDS011;9924;50.828;6.440;2023-12-04T02:22:34;9.20;;;4.77;;
19554;SDS011;9924;50.828;6.440;2023-12-04T02:25:00;9.70;;;5.37;;
19554;SDS011;9924;50.828;6.440;2023-12-04T02:27:31;11.73;;;5.27;;
19554;SDS011;9924;50.828;6.440;2023-12-04T02:30:02;10.00;;;4.67;;
19554;SDS011;9924;50.828;6.440;2023-12-04T02:32:31;10.37;;;4.80;;
19554;SDS011;9924;50.828;6.440;2023-12-04T02:35:02;8.27;;;4.77;;
19554;SDS011;9924;50.828;6.440;2023-12-04T02:37:30;13.20;;;5.43;;
19554;SDS011;9924;50.828;6.440;2023-12-04T02:39:57;9.37;;;4.60;;
19554;SDS011;9924;50.828;6.440;2023-12-04T02:42:23;8.03;;;4.07;;
19554;SDS011;9924;50.828;6.440;2023-12-04T02:44:53;11.07;;;4.93;;
19554;SDS011;9924;50.828;6.440;2023-12-04T02:47:19;8.37;;;4.43;;
19554;SDS011;9924;50.828;6.440;2023-12-04T02:49:44;7.73;;;4.30;;
19554;SDS011;9924;50.828;6.440;2023-12-04T02:52:10;11.00;;;4.67;;
19554;SDS011;9924;50.828;6.440;2023-12-04T02:54:36;7.73;;;4.20;;
19554;SDS011;9924;50.828;6.440;2023-12-04T02:57:02;9.57;;;4.37;;
19554;SDS011;9924;50.828;6.440;2023-12-04T02:59:28;10.03;;;4.30;;
19554;SDS011;9924;50.828;6.440;2023-12-04T03:01:54;10.37;;;4.60;;
19554;SDS011;9924;50.828;6.440;2023-12-04T03:04:20;8.90;;;4.50;;
19554;SDS011;9924;50.828;6.440;2023-12-04T03:06:45;10.00;;;4.77;;
19554;SDS011;9924;50.828;6.440;2023-12-04T03:09:11;10.23;;;4.53;;
19554;SDS011;9924;50.828;6.440;2023-12-04T03:11:40;10.63;;;4.43;;
19554;SDS011;9924;50.828;6.440;2023-12-04T03:14:06;8.13;;;4.17;;
19554;SDS011;9924;50.828;6.440;2023-12-04T03:16:32;8.33;;;4.20;;
19554;SDS011;9924;50.828;6.440;2023-12-04T03:18:59;8.67;;;3.87;;
19554;SDS011;9924;50.828;6.440;2023-12-04T03:21:24;5.80;;;3.33;;
19554;SDS011;9924;50.828;6.440;2023-12-04T03:23:50;12.33;;;3.93;;
19554;SDS011;9924;50.828;6.440;2023-12-04T03:26:16;7.60;;;3.87;;
19554;SDS011;9924;50.828;6.440;2023-12-04T03:28:42;7.77;;;4.00;;
19554;SDS011;9924;50.828;6.440;2023-12-04T03:31:08;7.63;;;3.77;;
19554;SDS011;9924;50.828;6.440;2023-12-04T03:33:33;8.17;;;4.30;;
19554;SDS011;9924;50.828;6.440;2023-12-04T03:35:59;8.07;;;3.97;;
19554;SDS011;9924;50.828;6.440;2023-12-04T03:38:26;7.07;;;4.37;;
19554;SDS011;9924;50.828;6.440;2023-12-04T03:40:52;8.03;;;4.00;;
19554;SDS011;9924;50.828;6.440;2023-12-04T03:43:17;8.13;;;3.90;;
19554;SDS011;9924;50.828;6.440;2023-12-04T03:45:43;13.53;;;3.53;;
19554;SDS011;9924;50.828;6.440;2023-12-04T03:48:09;6.10;;;3.70;;
19554;SDS011;9924;50.828;6.440;2023-12-04T03:50:35;8.33;;;3.50;;
19554;SDS011;9924;50.828;6.440;2023-12-04T03:53:01;7.87;;;3.60;;
19554;SDS011;9924;50.828;6.440;2023-12-04T03:55:26;6.17;;;3.43;;
19554;SDS011;9924;50.828;6.440;2023-12-04T03:57:53;5.93;;;3.07;;
19554;SDS011;9924;50.828;6.440;2023-12-04T04:00:19;4.13;;;2.60;;
19554;SDS011;9924;50.828;6.440;2023-12-04T04:02:45;7.47;;;3.70;;
19554;SDS011;9924;50.828;6.440;2023-12-04T04:05:10;5.27;;;2.73;;
19554;SDS011;9924;50.828;6.440;2023-12-04T04:07:36;7.03;;;3.20;;
19554;SDS011;9924;50.828;6.440;2023-12-04T04:10:02;5.90;;;3.20;;
19554;SDS011;9924;50.828;6.440;2023-12-04T04:12:29;6.67;;;3.40;;
19554;SDS011;9924;50.828;6.440;2023-12-04T04:14:55;6.27;;;3.30;;
19554;SDS011;9924;50.828;6.440;2023-12-04T04:17:22;5.87;;;3.27;;
19554;SDS011;9924;50.828;6.440;2023-12-04T04:19:50;5.00;;;2.77;;
19554;SDS011;9924;50.828;6.440;2023-12-04T04:22:16;7.00;;;2.90;;
19554;SDS011;9924;50.828;6.440;2023-12-04T04:24:42;4.80;;;3.03;;
19554;SDS011;9924;50.828;6.440;2023-12-04T04:27:08;4.17;;;2.50;;
19554;SDS011;9924;50.828;6.440;2023-12-04T04:29:34;6.83;;;2.70;;
19554;SDS011;9924;50.828;6.440;2023-12-04T04:32:00;5.30;;;2.23;;
19554;SDS011;9924;50.828;6.440;2023-12-04T04:34:26;5.43;;;2.50;;
19554;SDS011;9924;50.828;6.440;2023-12-04T04:36:51;6.40;;;2.97;;
19554;SDS011;9924;50.828;6.440;2023-12-04T04:39:17;6.20;;;2.40;;
19554;SDS011;9924;50.828;6.440;2023-12-04T04:41:43;4.80;;;2.50;;
19554;SDS011;9924;50.828;6.440;2023-12-04T04:44:10;6.50;;;2.20;;
19554;SDS011;9924;50.828;6.440;2023-12-04T04:46:35;4.83;;;2.37;;
19554;SDS011;9924;50.828;6.440;2023-12-04T04:49:01;6.73;;;2.93;;
19554;SDS011;9924;50.828;6.440;2023-12-04T04:51:27;5.23;;;2.50;;
19554;SDS011;9924;50.828;6.440;2023-12-04T04:53:54;4.00;;;2.37;;
19554;SDS011;9924;50.828;6.440;2023-12-04T04:56:20;5.27;;;2.50;;
19554;SDS011;9924;50.828;6.440;2023-12-04T04:58:46;3.53;;;2.40;;
19554;SDS011;9924;50.828;6.440;2023-12-04T05:01:12;3.70;;;2.20;;
19554;SDS011;9924;50.828;6.440;2023-12-04T05:03:38;5.67;;;2.67;;
19554;SDS011;9924;50.828;6.440;2023-12-04T05:06:04;6.17;;;3.03;;
19554;SDS011;9924;50.828;6.440;2023-12-04T05:08:30;4.87;;;2.23;;
19554;SDS011;9924;50.828;6.440;2023-12-04T05:10:55;4.27;;;2.40;;
19554;SDS011;9924;50.828;6.440;2023-12-04T05:13:21;3.57;;;2.10;;
19554;SDS011;9924;50.828;6.440;2023-12-04T05:15:47;4.30;;;2.40;;
19554;SDS011;9924;50.828;6.440;2023-12-04T05:18:16;7.17;;;2.97;;
19554;SDS011;9924;50.828;6.440;2023-12-04T05:20:41;5.10;;;2.47;;
19554;SDS011;9924;50.828;6.440;2023-12-04T05:23:07;5.43;;;2.50;;
19554;SDS011;9924;50.828;6.440;2023-12-04T05:25:33;3.87;;;2.30;;
19554;SDS011;9924;50.828;6.440;2023-12-04T05:27:58;5.07;;;2.60;;
19554;SDS011;9924;50.828;6.440;2023-12-04T05:30:24;7.27;;;2.47;;
19554;SDS011;9924;50.828;6.440;2023-12-04T05:32:50;4.10;;;2.10;;
19554;SDS011;9924;50.828;6.440;2023-12-04T05:35:16;5.00;;;2.07;;
19554;SDS011;9924;50.828;6.440;2023-12-04T05:37:42;3.37;;;1.77;;
19554;SDS011;9924;50.828;6.440;2023-12-04T05:40:08;4.17;;;2.60;;
19554;SDS011;9924;50.828;6.440;2023-12-04T05:42:34;5.73;;;2.13;;
19554;SDS011;9924;50.828;6.440;2023-12-04T05:44:59;3.60;;;2.10;;
19554;SDS011;9924;50.828;6.440;2023-12-04T05:47:26;4.60;;;2.23;;
19554;SDS011;9924;50.828;6.440;2023-12-04T05:49:51;4.77;;;2.63;;
19554;SDS011;9924;50.828;6.440;2023-12-04T05:52:17;3.20;;;2.27;;
19554;SDS011;9924;50.828;6.440;2023-12-04T05:54:43;3.90;;;2.30;;
19554;SDS011;9924;50.828;6.440;2023-12-04T05:57:08;3.43;;;2.10;;
19554;SDS011;9924;50.828;6.440;2023-12-04T05:59:34;5.53;;;2.80;;
19554;SDS011;9924;50.828;6.440;2023-12-04T06:02:00;3.60;;;2.30;;
19554;SDS011;9924;50.828;6.440;2023-12-04T06:04:26;5.30;;;2.73;;
19554;SDS011;9924;50.828;6.440;2023-12-04T06:06:52;3.73;;;2.27;;
19554;SDS011;9924;50.828;6.440;2023-12-04T06:09:17;2.43;;;1.97;;
19554;SDS011;9924;50.828;6.440;2023-12-04T06:11:43;3.53;;;1.80;;
19554;SDS011;9924;50.828;6.440;2023-12-04T06:14:09;3.20;;;2.13;;
19554;SDS011;9924;50.828;6.440;2023-12-04T06:16:36;4.93;;;2.27;;
19554;SDS011;9924;50.828;6.440;2023-12-04T06:19:02;4.10;;;2.07;;
19554;SDS011;9924;50.828;6.440;2023-12-04T06:21:29;4.40;;;1.97;;
19554;SDS011;9924;50.828;6.440;2023-12-04T06:23:56;3.30;;;1.70;;
19554;SDS011;9924;50.828;6.440;2023-12-04T06:26:22;2.87;;;1.50;;
19554;SDS011;9924;50.828;6.440;2023-12-04T06:28:48;2.77;;;1.77;;
19554;SDS011;9924;50.828;6.440;2023-12-04T06:31:14;5.23;;;2.30;;
19554;SDS011;9924;50.828;6.440;2023-12-04T06:33:40;7.87;;;3.93;;
19554;SDS011;9924;50.828;6.440;2023-12-04T06:36:07;4.53;;;2.57;;
19554;SDS011;9924;50.828;6.440;2023-12-04T06:38:33;7.03;;;3.50;;
19554;SDS011;9924;50.828;6.440;2023-12-04T06:41:04;9.97;;;4.17;;
19554;SDS011;9924;50.828;6.440;2023-12-04T06:43:30;6.47;;;4.00;;
19554;SDS011;9924;50.828;6.440;2023-12-04T06:45:58;9.20;;;4.40;;
19554;SDS011;9924;50.828;6.440;2023-12-04T06:48:24;7.97;;;4.20;;
19554;SDS011;9924;50.828;6.440;2023-12-04T06:50:50;7.40;;;3.93;;
19554;SDS011;9924;50.828;6.440;2023-12-04T06:53:16;10.60;;;4.27;;
19554;SDS011;9924;50.828;6.440;2023-12-04T06:55:42;7.40;;;3.93;;
19554;SDS011;9924;50.828;6.440;2023-12-04T06:58:08;6.73;;;3.70;;
19554;SDS011;9924;50.828;6.440;2023-12-04T07:00:34;9.30;;;4.03;;
19554;SDS011;9924;50.828;6.440;2023-12-04T07:02:59;8.77;;;4.37;;
19554;SDS011;9924;50.828;6.440;2023-12-04T07:05:26;11.43;;;4.93;;
19554;SDS011;9924;50.828;6.440;2023-12-04T07:07:51;10.33;;;4.90;;
19554;SDS011;9924;50.828;6.440;2023-12-04T07:10:17;10.80;;;5.57;;
19554;SDS011;9924;50.828;6.440;2023-12-04T07:12:43;12.93;;;5.40;;
19554;SDS011;9924;50.828;6.440;2023-12-04T07:15:10;12.80;;;5.63;;
19554;SDS011;9924;50.828;6.440;2023-12-04T07:17:36;10.20;;;6.07;;
19554;SDS011;9924;50.828;6.440;2023-12-04T07:20:03;10.30;;;4.67;;
19554;SDS011;9924;50.828;6.440;2023-12-04T07:22:31;10.90;;;5.97;;
19554;SDS011;9924;50.828;6.440;2023-12-04T07:24:57;12.63;;;5.93;;
19554;SDS011;9924;50.828;6.440;2023-12-04T07:27:23;10.90;;;5.73;;
19554;SDS011;9924;50.828;6.440;2023-12-04T07:29:50;12.90;;;6.87;;
19554;SDS011;9924;50.828;6.440;2023-12-04T07:32:15;15.13;;;7.03;;
19554;SDS011;9924;50.828;6.440;2023-12-04T07:34:43;12.93;;;6.70;;
19554;SDS011;9924;50.828;6.440;2023-12-04T07:37:09;17.07;;;7.50;;
19554;SDS011;9924;50.828;6.440;2023-12-04T07:39:35;14.07;;;7.63;;
19554;SDS011;9924;50.828;6.440;2023-12-04T07:42:00;13.67;;;6.23;;
19554;SDS011;9924;50.828;6.440;2023-12-04T07:44:26;15.40;;;6.90;;
19554;SDS011;9924;50.828;6.440;2023-12-04T07:46:52;11.17;;;6.67;;
19554;SDS011;9924;50.828;6.440;2023-12-04T07:49:18;12.83;;;6.53;;
19554;SDS011;9924;50.828;6.440;2023-12-04T07:51:44;15.83;;;7.40;;
19554;SDS011;9924;50.828;6.440;2023-12-04T07:54:10;11.90;;;6.50;;
19554;SDS011;9924;50.828;6.440;2023-12-04T07:56:36;11.07;;;6.40;;
19554;SDS011;9924;50.828;6.440;2023-12-04T07:59:02;8.93;;;5.60;;
19554;SDS011;9924;50.828;6.440;2023-12-04T08:01:28;12.13;;;6.07;;
19554;SDS011;9924;50.828;6.440;2023-12-04T08:03:53;15.10;;;6.93;;
19554;SDS011;9924;50.828;6.440;2023-12-04T08:06:19;15.67;;;6.47;;
19554;SDS011;9924;50.828;6.440;2023-12-04T08:08:45;10.90;;;5.90;;
19554;SDS011;9924;50.828;6.440;2023-12-04T08:11:11;13.93;;;6.60;;
19554;SDS011;9924;50.828;6.440;2023-12-04T08:13:39;11.60;;;6.20;;
19554;SDS011;9924;50.828;6.440;2023-12-04T08:16:12;11.87;;;6.33;;
19554;SDS011;9924;50.828;6.440;2023-12-04T08:18:39;11.93;;;5.83;;
19554;SDS011;9924;50.828;6.440;2023-12-04T08:21:05;9.20;;;5.33;;
19554;SDS011;9924;50.828;6.440;2023-12-04T08:23:31;9.57;;;5.50;;
19554;SDS011;9924;50.828;6.440;2023-12-04T08:25:57;14.90;;;6.47;;
19554;SDS011;9924;50.828;6.440;2023-12-04T08:28:23;12.17;;;5.30;;
19554;SDS011;9924;50.828;6.440;2023-12-04T08:30:48;10.90;;;5.53;;
19554;SDS011;9924;50.828;6.440;2023-12-04T08:33:14;11.03;;;4.90;;
19554;SDS011;9924;50.828;6.440;2023-12-04T08:35:40;10.93;;;5.33;;
19554;SDS011;9924;50.828;6.440;2023-12-04T08:38:06;8.47;;;4.63;;
19554;SDS011;9924;50.828;6.440;2023-12-04T08:40:32;7.53;;;4.10;;
19554;SDS011;9924;50.828;6.440;2023-12-04T08:42:58;8.47;;;4.30;;
19554;SDS011;9924;50.828;6.440;2023-12-04T08:45:24;8.80;;;4.57;;
19554;SDS011;9924;50.828;6.440;2023-12-04T08:47:49;7.87;;;3.80;;
19554;SDS011;9924;50.828;6.440;2023-12-04T08:50:15;6.70;;;3.93;;
19554;SDS011;9924;50.828;6.440;2023-12-04T08:52:41;6.23;;;3.47;;
19554;SDS011;9924;50.828;6.440;2023-12-04T08:55:07;5.50;;;3.53;;
19554;SDS011;9924;50.828;6.440;2023-12-04T08:57:33;8.73;;;3.63;;
19554;SDS011;9924;50.828;6.440;2023-12-04T08:59:59;5.53;;;2.60;;
19554;SDS011;9924;50.828;6.440;2023-12-04T09:02:25;4.47;;;2.70;;
19554;SDS011;9924;50.828;6.440;2023-12-04T09:04:51;5.23;;;3.00;;
19554;SDS011;9924;50.828;6.440;2023-12-04T09:07:17;5.57;;;3.17;;
19554;SDS011;9924;50.828;6.440;2023-12-04T09:09:43;5.87;;;3.67;;
19554;SDS011;9924;50.828;6.440;2023-12-04T09:12:09;5.43;;;3.57;;
19554;SDS011;9924;50.828;6.440;2023-12-04T09:14:35;7.37;;;3.60;;
19554;SDS011;9924;50.828;6.440;2023-12-04T09:17:01;6.20;;;3.23;;
19554;SDS011;9924;50.828;6.440;2023-12-04T09:19:28;7.40;;;3.87;;
19554;SDS011;9924;50.828;6.440;2023-12-04T09:21:54;8.53;;;4.67;;
19554;SDS011;9924;50.828;6.440;2023-12-04T09:24:21;10.13;;;4.97;;
19554;SDS011;9924;50.828;6.440;2023-12-04T09:26:48;19.47;;;5.07;;
19554;SDS011;9924;50.828;6.440;2023-12-04T09:29:14;8.40;;;4.30;;
19554;SDS011;9924;50.828;6.440;2023-12-04T09:31:41;10.83;;;5.57;;
19554;SDS011;9924;50.828;6.440;2023-12-04T09:34:08;9.77;;;5.63;;
19554;SDS011;9924;50.828;6.440;2023-12-04T09:36:34;10.53;;;5.10;;
19554;SDS011;9924;50.828;6.440;2023-12-04T09:39:00;10.00;;;5.17;;
19554;SDS011;9924;50.828;6.440;2023-12-04T09:41:26;10.53;;;5.40;;
19554;SDS011;9924;50.828;6.440;2023-12-04T09:43:53;11.53;;;5.77;;
19554;SDS011;9924;50.828;6.440;2023-12-04T09:46:19;11.47;;;6.07;;
19554;SDS011;9924;50.828;6.440;2023-12-04T09:48:45;10.23;;;5.63;;
19554;SDS011;9924;50.828;6.440;2023-12-04T09:51:11;12.77;;;5.70;;
19554;SDS011;9924;50.828;6.440;2023-12-04T09:53:39;10.93;;;5.67;;
19554;SDS011;9924;50.828;6.440;2023-12-04T09:56:10;13.13;;;5.67;;
19554;SDS011;9924;50.828;6.440;2023-12-04T09:58:39;8.47;;;5.07;;
19554;SDS011;9924;50.828;6.440;2023-12-04T10:01:06;9.80;;;5.67;;
19554;SDS011;9924;50.828;6.440;2023-12-04T10:03:34;10.43;;;5.17;;
19554;SDS011;9924;50.828;6.440;2023-12-04T10:06:01;10.57;;;5.40;;
19554;SDS011;9924;50.828;6.440;2023-12-04T10:08:29;10.03;;;4.93;;
19554;SDS011;9924;50.828;6.440;2023-12-04T10:10:55;8.43;;;4.93;;
19554;SDS011;9924;50.828;6.440;2023-12-04T10:13:21;8.80;;;4.60;;
19554;SDS011;9924;50.828;6.440;2023-12-04T10:15:49;6.67;;;3.60;;
19554;SDS011;9924;50.828;6.440;2023-12-04T10:18:25;5.87;;;2.90;;
19554;SDS011;9924;50.828;6.440;2023-12-04T10:20:54;6.47;;;2.97;;
19554;SDS011;9924;50.828;6.440;2023-12-04T10:23:20;8.60;;;2.60;;
19554;SDS011;9924;50.828;6.440;2023-12-04T10:25:47;4.80;;;2.63;;
19554;SDS011;9924;50.828;6.440;2023-12-04T10:28:16;4.93;;;2.80;;
19554;SDS011;9924;50.828;6.440;2023-12-04T10:30:43;7.17;;;2.63;;
19554;SDS011;9924;50.828;6.440;2023-12-04T10:33:09;4.97;;;2.73;;
19554;SDS011;9924;50.828;6.440;2023-12-04T10:35:36;7.23;;;3.03;;
19554;SDS011;9924;50.828;6.440;2023-12-04T10:38:02;5.10;;;2.87;;
19554;SDS011;9924;50.828;6.440;2023-12-04T10:40:29;8.47;;;3.53;;
19554;SDS011;9924;50.828;6.440;2023-12-04T10:45:34;6.77;;;3.00;;
19554;SDS011;9924;50.828;6.440;2023-12-04T10:48:01;6.17;;;3.27;;
19554;SDS011;9924;50.828;6.440;2023-12-04T10:50:39;5.97;;;2.97;;
19554;SDS011;9924;50.828;6.440;2023-12-04T10:53:07;5.93;;;2.87;;
19554;SDS011;9924;50.828;6.440;2023-12-04T10:55:35;4.40;;;2.20;;
19554;SDS011;9924;50.828;6.440;2023-12-04T10:58:03;5.60;;;2.80;;
19554;SDS011;9924;50.828;6.440;2023-12-04T11:00:35;6.97;;;3.50;;
19554;SDS011;9924;50.828;6.440;2023-12-04T11:03:10;5.60;;;3.40;;
19554;SDS011;9924;50.828;6.440;2023-12-04T11:05:40;5.77;;;3.37;;
19554;SDS011;9924;50.828;6.440;2023-12-04T11:08:10;6.00;;;2.93;;
19554;SDS011;9924;50.828;6.440;2023-12-04T11:10:48;6.63;;;2.97;;
19554;SDS011;9924;50.828;6.440;2023-12-04T11:13:30;5.50;;;3.20;;
19554;SDS011;9924;50.828;6.440;2023-12-04T11:16:02;8.20;;;3.30;;
19554;SDS011;9924;50.828;6.440;2023-12-04T11:19:07;5.77;;;3.20;;
19554;SDS011;9924;50.828;6.440;2023-12-04T11:21:35;5.57;;;2.83;;
19554;SDS011;9924;50.828;6.440;2023-12-04T11:24:03;6.93;;;3.03;;
19554;SDS011;9924;50.828;6.440;2023-12-04T11:26:31;5.60;;;3.07;;
19554;SDS011;9924;50.828;6.440;2023-12-04T11:28:57;6.20;;;3.33;;
19554;SDS011;9924;50.828;6.440;2023-12-04T11:31:23;6.70;;;3.53;;
19554;SDS011;9924;50.828;6.440;2023-12-04T11:33:50;11.23;;;3.30;;
19554;SDS011;9924;50.828;6.440;2023-12-04T11:36:16;6.53;;;3.50;;
19554;SDS011;9924;50.828;6.440;2023-12-04T11:38:45;6.97;;;3.50;;
19554;SDS011;9924;50.828;6.440;2023-12-04T11:41:15;6.10;;;3.73;;
19554;SDS011;9924;50.828;6.440;2023-12-04T11:43:50;6.40;;;4.47;;
19554;SDS011;9924;50.828;6.440;2023-12-04T11:46:20;11.17;;;4.30;;
19554;SDS011;9924;50.828;6.440;2023-12-04T11:48:48;8.63;;;4.97;;
19554;SDS011;9924;50.828;6.440;2023-12-04T11:51:15;8.13;;;5.30;;
19554;SDS011;9924;50.828;6.440;2023-12-04T11:53:59;7.73;;;4.80;;
19554;SDS011;9924;50.828;6.440;2023-12-04T11:56:26;10.23;;;5.10;;
19554;SDS011;9924;50.828;6.440;2023-12-04T11:58:52;8.23;;;5.07;;
19554;SDS011;9924;50.828;6.440;2023-12-04T12:01:17;7.97;;;4.17;;
19554;SDS011;9924;50.828;6.440;2023-12-04T12:03:45;8.43;;;4.13;;
19554;SDS011;9924;50.828;6.440;2023-12-04T12:06:15;6.50;;;3.77;;
19554;SDS011;9924;50.828;6.440;2023-12-04T12:08:41;7.50;;;4.30;;
19554;SDS011;9924;50.828;6.440;2023-12-04T12:11:07;7.03;;;3.97;;
19554;SDS011;9924;50.828;6.440;2023-12-04T12:13:34;7.90;;;3.83;;
19554;SDS011;9924;50.828;6.440;2023-12-04T12:15:59;9.00;;;4.40;;
19554;SDS011;9924;50.828;6.440;2023-12-04T12:18:27;9.47;;;4.50;;
19554;SDS011;9924;50.828;6.440;2023-12-04T12:20:54;11.23;;;5.63;;
19554;SDS011;9924;50.828;6.440;2023-12-04T12:23:21;10.70;;;5.73;;
19554;SDS011;9924;50.828;6.440;2023-12-04T12:25:47;12.63;;;6.57;;
19554;SDS011;9924;50.828;6.440;2023-12-04T12:28:13;14.47;;;6.17;;
19554;SDS011;9924;50.828;6.440;2023-12-04T12:30:38;11.13;;;6.20;;
19554;SDS011;9924;50.828;6.440;2023-12-04T12:33:04;12.10;;;5.90;;
19554;SDS011;9924;50.828;6.440;2023-12-04T12:35:30;14.40;;;7.37;;
19554;SDS011;9924;50.828;6.440;2023-12-04T12:37:56;14.77;;;7.07;;
19554;SDS011;9924;50.828;6.440;2023-12-04T12:40:22;10.57;;;6.77;;
19554;SDS011;9924;50.828;6.440;2023-12-04T12:42:48;11.70;;;6.70;;
19554;SDS011;9924;50.828;6.440;2023-12-04T12:45:14;12.20;;;6.30;;
19554;SDS011;9924;50.828;6.440;2023-12-04T12:47:42;14.00;;;6.80;;
19554;SDS011;9924;50.828;6.440;2023-12-04T12:50:09;15.00;;;7.27;;
19554;SDS011;9924;50.828;6.440;2023-12-04T12:52:38;12.90;;;6.87;;
19554;SDS011;9924;50.828;6.440;2023-12-04T12:55:05;16.33;;;6.57;;
19554;SDS011;9924;50.828;6.440;2023-12-04T12:57:31;12.37;;;6.37;;
19554;SDS011;9924;50.828;6.440;2023-12-04T12:59:57;14.53;;;7.50;;
19554;SDS011;9924;50.828;6.440;2023-12-04T13:02:23;12.70;;;6.90;;
19554;SDS011;9924;50.828;6.440;2023-12-04T13:04:49;16.57;;;7.33;;
19554;SDS011;9924;50.828;6.440;2023-12-04T13:07:16;12.83;;;6.70;;
19554;SDS011;9924;50.828;6.440;2023-12-04T13:09:43;13.50;;;6.73;;
19554;SDS011;9924;50.828;6.440;2023-12-04T13:12:09;14.60;;;7.00;;
19554;SDS011;9924;50.828;6.440;2023-12-04T13:14:35;12.80;;;7.07;;
19554;SDS011;9924;50.828;6.440;2023-12-04T13:17:01;14.03;;;7.33;;
19554;SDS011;9924;50.828;6.440;2023-12-04T13:19:28;15.83;;;7.67;;
19554;SDS011;9924;50.828;6.440;2023-12-04T13:21:56;18.00;;;8.23;;
19554;SDS011;9924;50.828;6.440;2023-12-04T13:24:22;13.30;;;6.60;;
19554;SDS011;9924;50.828;6.440;2023-12-04T13:26:48;16.00;;;7.33;;
19554;SDS011;9924;50.828;6.440;2023-12-04T13:29:14;18.53;;;8.23;;
19554;SDS011;9924;50.828;6.440;2023-12-04T13:31:42;14.60;;;7.37;;
19554;SDS011;9924;50.828;6.440;2023-12-04T13:34:08;16.93;;;8.70;;
19554;SDS011;9924;50.828;6.440;2023-12-04T13:36:34;14.27;;;7.27;;
19554;SDS011;9924;50.828;6.440;2023-12-04T13:39:01;14.17;;;6.53;;
19554;SDS011;9924;50.828;6.440;2023-12-04T13:41:29;15.57;;;7.50;;
19554;SDS011;9924;50.828;6.440;2023-12-04T13:44:14;14.53;;;7.60;;
19554;SDS011;9924;50.828;6.440;2023-12-04T13:46:40;16.23;;;6.97;;
19554;SDS011;9924;50.828;6.440;2023-12-04T13:49:06;14.30;;;7.50;;
19554;SDS011;9924;50.828;6.440;2023-12-04T13:51:32;14.53;;;6.90;;
19554;SDS011;9924;50.828;6.440;2023-12-04T13:53:59;18.40;;;7.13;;
19554;SDS011;9924;50.828;6.440;2023-12-04T13:56:34;15.10;;;7.47;;
19554;SDS011;9924;50.828;6.440;2023-12-04T13:59:09;12.07;;;7.10;;
19554;SDS011;9924;50.828;6.440;2023-12-04T14:01:43;12.80;;;7.10;;
19554;SDS011;9924;50.828;6.440;2023-12-04T14:04:09;14.37;;;7.23;;
19554;SDS011;9924;50.828;6.440;2023-12-04T14:06:35;13.87;;;6.83;;
19554;SDS011;9924;50.828;6.440;2023-12-04T14:09:01;16.50;;;8.20;;
19554;SDS011;9924;50.828;6.440;2023-12-04T14:11:29;14.07;;;7.47;;
19554;SDS011;9924;50.828;6.440;2023-12-04T14:13:55;14.03;;;7.63;;
19554;SDS011;9924;50.828;6.440;2023-12-04T14:16:21;13.30;;;7.53;;
19554;SDS011;9924;50.828;6.440;2023-12-04T14:18:47;14.23;;;7.73;;
19554;SDS011;9924;50.828;6.440;2023-12-04T14:21:13;13.93;;;7.03;;
19554;SDS011;9924;50.828;6.440;2023-12-04T14:23:39;13.03;;;6.60;;
19554;SDS011;9924;50.828;6.440;2023-12-04T14:26:04;14.83;;;7.67;;
19554;SDS011;9924;50.828;6.440;2023-12-04T14:28:31;14.37;;;7.20;;
19554;SDS011;9924;50.828;6.440;2023-12-04T14:30:57;13.70;;;7.13;;
19554;SDS011;9924;50.828;6.440;2023-12-04T14:33:22;14.43;;;7.90;;
19554;SDS011;9924;50.828;6.440;2023-12-04T14:35:48;15.33;;;6.67;;
19554;SDS011;9924;50.828;6.440;2023-12-04T14:38:14;14.77;;;6.90;;
19554;SDS011;9924;50.828;6.440;2023-12-04T14:40:40;12.67;;;6.97;;
19554;SDS011;9924;50.828;6.440;2023-12-04T14:43:06;12.27;;;6.87;;
19554;SDS011;9924;50.828;6.440;2023-12-04T14:45:35;9.90;;;6.70;;
19554;SDS011;9924;50.828;6.440;2023-12-04T14:48:01;13.93;;;7.27;;
19554;SDS011;9924;50.828;6.440;2023-12-04T14:50:31;11.93;;;6.27;;
19554;SDS011;9924;50.828;6.440;2023-12-04T14:52:57;13.17;;;6.67;;
19554;SDS011;9924;50.828;6.440;2023-12-04T14:55:35;11.80;;;7.07;;